sensor_id;sensor_type;location;lat;lon;timestamp;P1;durP1;ratioP1;P2;durP2;ratioP2
69434;SDS011;56625;54.322;18.582;2022-12-10T00:01:49;42.80;;;15.90;;
69434;SDS011;56625;54.322;18.582;2022-12-10T00:04:19;44.00;;;16.50;;
69434;SDS011;56625;54.322;18.582;2022-12-10T00:06:48;41.30;;;14.40;;
69434;SDS011;56625;54.322;18.582;2022-12-10T00:09:18;42.40;;;14.60;;
69434;SDS011;56625;54.322;18.582;2022-12-10T00:11:47;32.60;;;11.30;;
69434;SDS011;56625;54.322;18.582;2022-12-10T00:14:15;37.50;;;13.60;;
69434;SDS011;56625;54.322;18.582;2022-12-10T00:16:43;46.70;;;14.00;;
69434;SDS011;56625;54.322;18.582;2022-12-10T00:19:11;43.40;;;14.40;;
69434;SDS011;56625;54.322;18.582;2022-12-10T00:21:39;42.80;;;16.40;;
69434;SDS011;56625;54.322;18.582;2022-12-10T00:24:09;51.40;;;18.60;;
69434;SDS011;56625;54.322;18.582;2022-12-10T00:26:38;48.30;;;17.00;;
69434;SDS011;56625;54.322;18.582;2022-12-10T00:29:10;41.70;;;15.20;;
69434;SDS011;56625;54.322;18.582;2022-12-10T00:31:39;43.90;;;16.10;;
69434;SDS011;56625;54.322;18.582;2022-12-10T00:34:10;42.20;;;15.70;;
69434;SDS011;56625;54.322;18.582;2022-12-10T00:36:45;43.70;;;15.90;;
69434;SDS011;56625;54.322;18.582;2022-12-10T00:39:18;40.60;;;14.90;;
69434;SDS011;56625;54.322;18.582;2022-12-10T00:41:48;39.60;;;14.30;;
69434;SDS011;56625;54.322;18.582;2022-12-10T00:44:16;42.20;;;14.90;;
69434;SDS011;56625;54.322;18.582;2022-12-10T00:46:44;42.30;;;14.60;;
69434;SDS011;56625;54.322;18.582;2022-12-10T00:49:12;48.50;;;17.10;;
69434;SDS011;56625;54.322;18.582;2022-12-10T00:51:41;52.70;;;20.00;;
69434;SDS011;56625;54.322;18.582;2022-12-10T00:54:09;44.70;;;16.00;;
69434;SDS011;56625;54.322;18.582;2022-12-10T00:56:38;40.50;;;13.80;;
69434;SDS011;56625;54.322;18.582;2022-12-10T00:59:07;37.90;;;13.00;;
69434;SDS011;56625;54.322;18.582;2022-12-10T01:01:37;33.40;;;11.80;;
69434;SDS011;56625;54.322;18.582;2022-12-10T01:04:12;27.60;;;10.00;;
69434;SDS011;56625;54.322;18.582;2022-12-10T01:06:43;39.20;;;13.90;;
69434;SDS011;56625;54.322;18.582;2022-12-10T01:09:16;41.90;;;13.80;;
69434;SDS011;56625;54.322;18.582;2022-12-10T01:11:47;33.10;;;11.20;;
69434;SDS011;56625;54.322;18.582;2022-12-10T01:14:19;31.00;;;11.10;;
69434;SDS011;56625;54.322;18.582;2022-12-10T01:16:57;34.10;;;11.30;;
69434;SDS011;56625;54.322;18.582;2022-12-10T01:19:27;23.60;;;9.60;;
69434;SDS011;56625;54.322;18.582;2022-12-10T01:21:56;25.70;;;9.30;;
69434;SDS011;56625;54.322;18.582;2022-12-10T01:24:26;29.30;;;11.00;;
69434;SDS011;56625;54.322;18.582;2022-12-10T01:26:56;36.20;;;13.60;;
69434;SDS011;56625;54.322;18.582;2022-12-10T01:29:24;36.30;;;12.90;;
69434;SDS011;56625;54.322;18.582;2022-12-10T01:31:55;29.60;;;10.70;;
69434;SDS011;56625;54.322;18.582;2022-12-10T01:34:25;30.50;;;11.40;;
69434;SDS011;56625;54.322;18.582;2022-12-10T01:36:54;29.90;;;10.50;;
69434;SDS011;56625;54.322;18.582;2022-12-10T01:39:23;31.10;;;11.60;;
69434;SDS011;56625;54.322;18.582;2022-12-10T01:41:58;24.80;;;9.70;;
69434;SDS011;56625;54.322;18.582;2022-12-10T01:46:57;24.60;;;9.00;;
69434;SDS011;56625;54.322;18.582;2022-12-10T01:49:33;24.30;;;9.50;;
69434;SDS011;56625;54.322;18.582;2022-12-10T01:52:05;23.90;;;8.90;;
69434;SDS011;56625;54.322;18.582;2022-12-10T01:54:38;21.70;;;8.30;;
69434;SDS011;56625;54.322;18.582;2022-12-10T01:57:21;21.90;;;8.20;;
69434;SDS011;56625;54.322;18.582;2022-12-10T02:00:00;20.50;;;7.70;;
69434;SDS011;56625;54.322;18.582;2022-12-10T02:05:41;14.40;;;5.30;;
69434;SDS011;56625;54.322;18.582;2022-12-10T02:08:33;14.90;;;5.30;;
69434;SDS011;56625;54.322;18.582;2022-12-10T02:11:23;18.50;;;6.80;;
69434;SDS011;56625;54.322;18.582;2022-12-10T02:14:36;18.70;;;6.30;;
69434;SDS011;56625;54.322;18.582;2022-12-10T02:17:09;23.60;;;7.50;;
69434;SDS011;56625;54.322;18.582;2022-12-10T02:19:56;23.80;;;9.30;;
69434;SDS011;56625;54.322;18.582;2022-12-10T02:22:39;16.20;;;6.00;;
69434;SDS011;56625;54.322;18.582;2022-12-10T02:25:21;16.20;;;5.70;;
69434;SDS011;56625;54.322;18.582;2022-12-10T02:31:01;13.40;;;4.80;;
69434;SDS011;56625;54.322;18.582;2022-12-10T02:33:33;16.00;;;5.40;;
69434;SDS011;56625;54.322;18.582;2022-12-10T02:36:08;15.60;;;5.40;;
69434;SDS011;56625;54.322;18.582;2022-12-10T02:38:39;14.80;;;5.60;;
69434;SDS011;56625;54.322;18.582;2022-12-10T02:41:16;13.70;;;4.90;;
69434;SDS011;56625;54.322;18.582;2022-12-10T02:43:52;17.40;;;6.40;;
69434;SDS011;56625;54.322;18.582;2022-12-10T02:46:24;18.00;;;6.20;;
69434;SDS011;56625;54.322;18.582;2022-12-10T02:48:56;23.80;;;7.60;;
69434;SDS011;56625;54.322;18.582;2022-12-10T02:51:26;20.80;;;8.60;;
69434;SDS011;56625;54.322;18.582;2022-12-10T02:54:04;18.10;;;7.00;;
69434;SDS011;56625;54.322;18.582;2022-12-10T02:56:42;13.70;;;4.50;;
69434;SDS011;56625;54.322;18.582;2022-12-10T03:02:07;14.70;;;5.80;;
69434;SDS011;56625;54.322;18.582;2022-12-10T03:08:02;18.30;;;6.40;;
69434;SDS011;56625;54.322;18.582;2022-12-10T03:13:29;16.20;;;6.10;;
69434;SDS011;56625;54.322;18.582;2022-12-10T03:16:04;17.70;;;6.50;;
69434;SDS011;56625;54.322;18.582;2022-12-10T03:18:34;14.90;;;5.30;;
69434;SDS011;56625;54.322;18.582;2022-12-10T03:21:06;14.00;;;4.90;;
69434;SDS011;56625;54.322;18.582;2022-12-10T03:23:38;17.40;;;5.90;;
69434;SDS011;56625;54.322;18.582;2022-12-10T03:26:10;21.60;;;7.20;;
69434;SDS011;56625;54.322;18.582;2022-12-10T03:28:45;20.30;;;7.10;;
69434;SDS011;56625;54.322;18.582;2022-12-10T03:31:18;18.70;;;6.20;;
69434;SDS011;56625;54.322;18.582;2022-12-10T03:33:48;14.80;;;5.70;;
69434;SDS011;56625;54.322;18.582;2022-12-10T03:36:18;18.00;;;6.60;;
69434;SDS011;56625;54.322;18.582;2022-12-10T03:38:47;17.70;;;6.10;;
69434;SDS011;56625;54.322;18.582;2022-12-10T03:41:16;17.40;;;6.50;;
69434;SDS011;56625;54.322;18.582;2022-12-10T03:43:52;16.10;;;6.20;;
69434;SDS011;56625;54.322;18.582;2022-12-10T03:46:26;18.60;;;7.00;;
69434;SDS011;56625;54.322;18.582;2022-12-10T03:48:57;19.90;;;7.10;;
69434;SDS011;56625;54.322;18.582;2022-12-10T03:51:26;18.30;;;6.30;;
69434;SDS011;56625;54.322;18.582;2022-12-10T03:53:54;19.90;;;7.40;;
69434;SDS011;56625;54.322;18.582;2022-12-10T03:56:22;19.10;;;6.90;;
69434;SDS011;56625;54.322;18.582;2022-12-10T03:58:50;14.90;;;5.00;;
69434;SDS011;56625;54.322;18.582;2022-12-10T04:01:18;16.70;;;5.70;;
69434;SDS011;56625;54.322;18.582;2022-12-10T04:03:46;17.80;;;6.40;;
69434;SDS011;56625;54.322;18.582;2022-12-10T04:06:17;13.90;;;5.30;;
69434;SDS011;56625;54.322;18.582;2022-12-10T04:08:47;14.40;;;5.20;;
69434;SDS011;56625;54.322;18.582;2022-12-10T04:11:23;11.80;;;4.10;;
69434;SDS011;56625;54.322;18.582;2022-12-10T04:13:52;14.60;;;5.50;;
69434;SDS011;56625;54.322;18.582;2022-12-10T04:16:39;17.20;;;5.60;;
69434;SDS011;56625;54.322;18.582;2022-12-10T04:19:09;19.90;;;6.70;;
69434;SDS011;56625;54.322;18.582;2022-12-10T04:21:41;19.00;;;6.90;;
69434;SDS011;56625;54.322;18.582;2022-12-10T04:24:34;16.10;;;6.10;;
69434;SDS011;56625;54.322;18.582;2022-12-10T04:27:28;14.10;;;5.50;;
69434;SDS011;56625;54.322;18.582;2022-12-10T04:29:59;14.70;;;5.30;;
69434;SDS011;56625;54.322;18.582;2022-12-10T04:32:28;13.40;;;5.20;;
69434;SDS011;56625;54.322;18.582;2022-12-10T04:34:57;17.20;;;5.80;;
69434;SDS011;56625;54.322;18.582;2022-12-10T04:37:26;14.70;;;5.60;;
69434;SDS011;56625;54.322;18.582;2022-12-10T04:39:54;15.00;;;5.90;;
69434;SDS011;56625;54.322;18.582;2022-12-10T04:42:22;13.60;;;4.50;;
69434;SDS011;56625;54.322;18.582;2022-12-10T04:44:50;14.90;;;5.40;;
69434;SDS011;56625;54.322;18.582;2022-12-10T04:47:19;18.00;;;6.60;;
69434;SDS011;56625;54.322;18.582;2022-12-10T04:49:47;21.50;;;7.40;;
69434;SDS011;56625;54.322;18.582;2022-12-10T04:52:16;20.50;;;7.10;;
69434;SDS011;56625;54.322;18.582;2022-12-10T04:54:44;18.00;;;6.50;;
69434;SDS011;56625;54.322;18.582;2022-12-10T04:57:12;18.70;;;6.40;;
69434;SDS011;56625;54.322;18.582;2022-12-10T04:59:41;19.50;;;7.10;;
69434;SDS011;56625;54.322;18.582;2022-12-10T05:02:09;16.80;;;7.30;;
69434;SDS011;56625;54.322;18.582;2022-12-10T05:04:38;20.30;;;7.40;;
69434;SDS011;56625;54.322;18.582;2022-12-10T05:07:06;15.40;;;5.50;;
69434;SDS011;56625;54.322;18.582;2022-12-10T05:09:34;17.10;;;6.60;;
69434;SDS011;56625;54.322;18.582;2022-12-10T05:12:02;19.90;;;6.40;;
69434;SDS011;56625;54.322;18.582;2022-12-10T05:14:30;18.90;;;6.80;;
69434;SDS011;56625;54.322;18.582;2022-12-10T05:16:58;19.40;;;7.30;;
69434;SDS011;56625;54.322;18.582;2022-12-10T05:19:26;17.80;;;6.80;;
69434;SDS011;56625;54.322;18.582;2022-12-10T05:21:54;16.40;;;6.60;;
69434;SDS011;56625;54.322;18.582;2022-12-10T05:24:40;15.00;;;5.70;;
69434;SDS011;56625;54.322;18.582;2022-12-10T05:27:08;17.20;;;6.70;;
69434;SDS011;56625;54.322;18.582;2022-12-10T05:29:36;17.50;;;6.70;;
69434;SDS011;56625;54.322;18.582;2022-12-10T05:32:04;16.20;;;5.30;;
69434;SDS011;56625;54.322;18.582;2022-12-10T05:34:32;16.30;;;5.60;;
69434;SDS011;56625;54.322;18.582;2022-12-10T05:37:00;55.50;;;21.40;;
69434;SDS011;56625;54.322;18.582;2022-12-10T05:39:28;20.60;;;9.00;;
69434;SDS011;56625;54.322;18.582;2022-12-10T05:41:56;20.20;;;7.30;;
69434;SDS011;56625;54.322;18.582;2022-12-10T05:44:24;25.20;;;8.80;;
69434;SDS011;56625;54.322;18.582;2022-12-10T05:46:52;30.30;;;11.30;;
69434;SDS011;56625;54.322;18.582;2022-12-10T05:49:20;18.50;;;6.50;;
69434;SDS011;56625;54.322;18.582;2022-12-10T05:51:48;23.60;;;9.40;;
69434;SDS011;56625;54.322;18.582;2022-12-10T05:54:16;21.30;;;7.50;;
69434;SDS011;56625;54.322;18.582;2022-12-10T05:56:44;15.30;;;6.20;;
69434;SDS011;56625;54.322;18.582;2022-12-10T05:59:12;17.00;;;7.10;;
69434;SDS011;56625;54.322;18.582;2022-12-10T06:01:44;19.80;;;6.70;;
69434;SDS011;56625;54.322;18.582;2022-12-10T06:04:12;12.80;;;4.60;;
69434;SDS011;56625;54.322;18.582;2022-12-10T06:06:41;19.50;;;7.80;;
69434;SDS011;56625;54.322;18.582;2022-12-10T06:09:12;14.80;;;5.10;;
69434;SDS011;56625;54.322;18.582;2022-12-10T06:11:41;24.40;;;8.10;;
69434;SDS011;56625;54.322;18.582;2022-12-10T06:14:10;26.90;;;9.30;;
69434;SDS011;56625;54.322;18.582;2022-12-10T06:16:39;27.80;;;11.00;;
69434;SDS011;56625;54.322;18.582;2022-12-10T06:19:08;25.60;;;10.30;;
69434;SDS011;56625;54.322;18.582;2022-12-10T06:21:36;27.60;;;10.50;;
69434;SDS011;56625;54.322;18.582;2022-12-10T06:24:05;18.10;;;7.00;;
69434;SDS011;56625;54.322;18.582;2022-12-10T06:26:33;17.30;;;6.30;;
69434;SDS011;56625;54.322;18.582;2022-12-10T06:29:01;16.10;;;6.60;;
69434;SDS011;56625;54.322;18.582;2022-12-10T06:31:29;18.50;;;6.90;;
69434;SDS011;56625;54.322;18.582;2022-12-10T06:33:57;18.60;;;7.40;;
69434;SDS011;56625;54.322;18.582;2022-12-10T06:36:25;23.60;;;8.50;;
69434;SDS011;56625;54.322;18.582;2022-12-10T06:38:53;37.50;;;11.00;;
69434;SDS011;56625;54.322;18.582;2022-12-10T06:41:21;21.40;;;7.70;;
69434;SDS011;56625;54.322;18.582;2022-12-10T06:43:50;19.10;;;6.40;;
69434;SDS011;56625;54.322;18.582;2022-12-10T06:46:20;17.80;;;6.90;;
69434;SDS011;56625;54.322;18.582;2022-12-10T06:48:48;16.10;;;5.70;;
69434;SDS011;56625;54.322;18.582;2022-12-10T06:51:17;16.50;;;3.70;;
69434;SDS011;56625;54.322;18.582;2022-12-10T06:53:46;18.80;;;7.30;;
69434;SDS011;56625;54.322;18.582;2022-12-10T06:56:16;14.90;;;6.30;;
69434;SDS011;56625;54.322;18.582;2022-12-10T06:58:46;16.90;;;6.70;;
69434;SDS011;56625;54.322;18.582;2022-12-10T07:01:17;19.60;;;7.10;;
69434;SDS011;56625;54.322;18.582;2022-12-10T07:03:51;18.10;;;6.60;;
69434;SDS011;56625;54.322;18.582;2022-12-10T07:06:21;15.10;;;4.10;;
69434;SDS011;56625;54.322;18.582;2022-12-10T07:08:51;18.00;;;6.70;;
69434;SDS011;56625;54.322;18.582;2022-12-10T07:11:21;16.10;;;6.30;;
69434;SDS011;56625;54.322;18.582;2022-12-10T07:13:51;18.50;;;7.50;;
69434;SDS011;56625;54.322;18.582;2022-12-10T07:16:22;15.30;;;6.40;;
69434;SDS011;56625;54.322;18.582;2022-12-10T07:18:56;20.30;;;8.70;;
69434;SDS011;56625;54.322;18.582;2022-12-10T07:21:31;22.40;;;8.80;;
69434;SDS011;56625;54.322;18.582;2022-12-10T07:24:04;20.90;;;8.60;;
69434;SDS011;56625;54.322;18.582;2022-12-10T07:26:45;18.00;;;6.90;;
69434;SDS011;56625;54.322;18.582;2022-12-10T07:29:19;24.80;;;9.20;;
69434;SDS011;56625;54.322;18.582;2022-12-10T07:31:49;23.60;;;8.30;;
69434;SDS011;56625;54.322;18.582;2022-12-10T07:34:17;19.70;;;6.10;;
69434;SDS011;56625;54.322;18.582;2022-12-10T07:36:45;22.10;;;8.80;;
69434;SDS011;56625;54.322;18.582;2022-12-10T07:39:14;23.40;;;8.80;;
69434;SDS011;56625;54.322;18.582;2022-12-10T07:41:50;23.50;;;9.10;;
69434;SDS011;56625;54.322;18.582;2022-12-10T07:44:22;19.70;;;7.30;;
69434;SDS011;56625;54.322;18.582;2022-12-10T07:46:54;22.80;;;8.40;;
69434;SDS011;56625;54.322;18.582;2022-12-10T07:49:22;17.20;;;6.80;;
69434;SDS011;56625;54.322;18.582;2022-12-10T07:51:51;17.80;;;5.70;;
69434;SDS011;56625;54.322;18.582;2022-12-10T07:54:19;13.60;;;4.90;;
69434;SDS011;56625;54.322;18.582;2022-12-10T07:56:47;11.30;;;4.20;;
69434;SDS011;56625;54.322;18.582;2022-12-10T07:59:16;21.70;;;7.50;;
69434;SDS011;56625;54.322;18.582;2022-12-10T08:01:44;20.40;;;7.30;;
69434;SDS011;56625;54.322;18.582;2022-12-10T08:04:12;22.40;;;8.30;;
69434;SDS011;56625;54.322;18.582;2022-12-10T08:06:40;22.70;;;8.20;;
69434;SDS011;56625;54.322;18.582;2022-12-10T08:09:09;23.20;;;7.90;;
69434;SDS011;56625;54.322;18.582;2022-12-10T08:11:37;22.50;;;9.20;;
69434;SDS011;56625;54.322;18.582;2022-12-10T08:14:05;26.00;;;9.70;;
69434;SDS011;56625;54.322;18.582;2022-12-10T08:16:33;23.10;;;9.30;;
69434;SDS011;56625;54.322;18.582;2022-12-10T08:19:01;21.60;;;9.10;;
69434;SDS011;56625;54.322;18.582;2022-12-10T08:21:31;18.40;;;6.40;;
69434;SDS011;56625;54.322;18.582;2022-12-10T08:24:00;20.50;;;8.50;;
69434;SDS011;56625;54.322;18.582;2022-12-10T08:26:31;20.60;;;7.10;;
69434;SDS011;56625;54.322;18.582;2022-12-10T08:29:00;18.60;;;7.10;;
69434;SDS011;56625;54.322;18.582;2022-12-10T08:31:30;15.60;;;5.50;;
69434;SDS011;56625;54.322;18.582;2022-12-10T08:34:13;21.50;;;7.60;;
69434;SDS011;56625;54.322;18.582;2022-12-10T08:36:44;20.10;;;6.90;;
69434;SDS011;56625;54.322;18.582;2022-12-10T08:39:13;22.90;;;9.20;;
69434;SDS011;56625;54.322;18.582;2022-12-10T08:41:45;19.60;;;7.80;;
69434;SDS011;56625;54.322;18.582;2022-12-10T08:44:13;21.30;;;7.60;;
69434;SDS011;56625;54.322;18.582;2022-12-10T08:46:41;20.20;;;7.90;;
69434;SDS011;56625;54.322;18.582;2022-12-10T08:49:09;16.30;;;5.30;;
69434;SDS011;56625;54.322;18.582;2022-12-10T08:51:38;23.40;;;8.80;;
69434;SDS011;56625;54.322;18.582;2022-12-10T08:54:06;23.20;;;8.70;;
69434;SDS011;56625;54.322;18.582;2022-12-10T08:56:34;23.20;;;8.40;;
69434;SDS011;56625;54.322;18.582;2022-12-10T08:59:02;15.30;;;5.60;;
69434;SDS011;56625;54.322;18.582;2022-12-10T09:01:31;20.40;;;7.90;;
69434;SDS011;56625;54.322;18.582;2022-12-10T09:03:59;19.00;;;6.20;;
69434;SDS011;56625;54.322;18.582;2022-12-10T09:06:28;22.10;;;8.90;;
69434;SDS011;56625;54.322;18.582;2022-12-10T09:08:57;20.10;;;8.10;;
69434;SDS011;56625;54.322;18.582;2022-12-10T09:11:28;26.30;;;9.60;;
69434;SDS011;56625;54.322;18.582;2022-12-10T09:13:59;19.70;;;8.60;;
69434;SDS011;56625;54.322;18.582;2022-12-10T09:16:35;16.80;;;6.10;;
69434;SDS011;56625;54.322;18.582;2022-12-10T09:19:05;17.30;;;7.10;;
69434;SDS011;56625;54.322;18.582;2022-12-10T09:21:35;20.60;;;6.50;;
69434;SDS011;56625;54.322;18.582;2022-12-10T09:24:04;22.90;;;8.00;;
69434;SDS011;56625;54.322;18.582;2022-12-10T09:26:32;22.50;;;9.00;;
69434;SDS011;56625;54.322;18.582;2022-12-10T09:29:00;21.50;;;7.30;;
69434;SDS011;56625;54.322;18.582;2022-12-10T09:31:28;19.10;;;7.20;;
69434;SDS011;56625;54.322;18.582;2022-12-10T09:33:59;23.10;;;7.90;;
69434;SDS011;56625;54.322;18.582;2022-12-10T09:36:27;13.20;;;5.20;;
69434;SDS011;56625;54.322;18.582;2022-12-10T09:39:00;21.80;;;8.00;;
69434;SDS011;56625;54.322;18.582;2022-12-10T09:44:44;23.90;;;10.20;;
69434;SDS011;56625;54.322;18.582;2022-12-10T09:47:33;21.20;;;8.20;;
69434;SDS011;56625;54.322;18.582;2022-12-10T09:50:20;11.70;;;4.50;;
69434;SDS011;56625;54.322;18.582;2022-12-10T09:52:54;20.40;;;7.80;;
69434;SDS011;56625;54.322;18.582;2022-12-10T09:55:34;24.60;;;8.70;;
69434;SDS011;56625;54.322;18.582;2022-12-10T09:58:05;23.70;;;9.60;;
69434;SDS011;56625;54.322;18.582;2022-12-10T10:00:44;24.50;;;9.00;;
69434;SDS011;56625;54.322;18.582;2022-12-10T10:03:15;20.30;;;7.10;;
69434;SDS011;56625;54.322;18.582;2022-12-10T10:05:47;19.60;;;7.80;;
69434;SDS011;56625;54.322;18.582;2022-12-10T10:08:31;21.10;;;9.00;;
69434;SDS011;56625;54.322;18.582;2022-12-10T10:11:02;23.70;;;8.30;;
69434;SDS011;56625;54.322;18.582;2022-12-10T10:16:25;19.40;;;7.90;;
69434;SDS011;56625;54.322;18.582;2022-12-10T10:19:00;18.10;;;7.30;;
69434;SDS011;56625;54.322;18.582;2022-12-10T10:21:46;20.00;;;8.10;;
69434;SDS011;56625;54.322;18.582;2022-12-10T10:24:20;21.40;;;8.50;;
69434;SDS011;56625;54.322;18.582;2022-12-10T10:26:52;21.30;;;8.70;;
69434;SDS011;56625;54.322;18.582;2022-12-10T10:29:25;24.20;;;9.60;;
69434;SDS011;56625;54.322;18.582;2022-12-10T10:34:55;19.30;;;7.50;;
69434;SDS011;56625;54.322;18.582;2022-12-10T10:37:40;19.70;;;7.70;;
69434;SDS011;56625;54.322;18.582;2022-12-10T10:40:30;16.10;;;6.70;;
69434;SDS011;56625;54.322;18.582;2022-12-10T10:43:18;16.90;;;6.20;;
69434;SDS011;56625;54.322;18.582;2022-12-10T10:46:02;22.50;;;8.10;;
69434;SDS011;56625;54.322;18.582;2022-12-10T10:48:33;18.90;;;7.10;;
69434;SDS011;56625;54.322;18.582;2022-12-10T10:56:23;16.40;;;7.30;;
69434;SDS011;56625;54.322;18.582;2022-12-10T10:59:29;20.60;;;8.40;;
69434;SDS011;56625;54.322;18.582;2022-12-10T11:04:51;23.50;;;9.70;;
69434;SDS011;56625;54.322;18.582;2022-12-10T11:07:39;21.40;;;8.70;;
69434;SDS011;56625;54.322;18.582;2022-12-10T11:10:22;26.00;;;11.00;;
69434;SDS011;56625;54.322;18.582;2022-12-10T11:12:57;24.90;;;10.60;;
69434;SDS011;56625;54.322;18.582;2022-12-10T11:15:32;26.50;;;11.00;;
69434;SDS011;56625;54.322;18.582;2022-12-10T11:18:09;29.20;;;11.80;;
69434;SDS011;56625;54.322;18.582;2022-12-10T11:23:43;27.00;;;11.80;;
69434;SDS011;56625;54.322;18.582;2022-12-10T11:32:43;27.10;;;10.70;;
69434;SDS011;56625;54.322;18.582;2022-12-10T11:38:45;24.50;;;10.80;;
69434;SDS011;56625;54.322;18.582;2022-12-10T11:41:44;22.50;;;9.40;;
69434;SDS011;56625;54.322;18.582;2022-12-10T11:50:28;24.20;;;11.20;;
69434;SDS011;56625;54.322;18.582;2022-12-10T11:59:14;18.60;;;7.80;;
69434;SDS011;56625;54.322;18.582;2022-12-10T12:02:31;21.90;;;9.50;;
69434;SDS011;56625;54.322;18.582;2022-12-10T12:05:23;22.20;;;8.70;;
69434;SDS011;56625;54.322;18.582;2022-12-10T12:08:03;24.80;;;9.40;;
69434;SDS011;56625;54.322;18.582;2022-12-10T12:10:43;25.80;;;10.90;;
69434;SDS011;56625;54.322;18.582;2022-12-10T12:13:29;26.00;;;11.20;;
69434;SDS011;56625;54.322;18.582;2022-12-10T12:16:15;24.60;;;10.40;;
69434;SDS011;56625;54.322;18.582;2022-12-10T12:18:55;28.40;;;11.60;;
69434;SDS011;56625;54.322;18.582;2022-12-10T12:21:30;32.30;;;11.40;;
69434;SDS011;56625;54.322;18.582;2022-12-10T12:24:02;26.20;;;10.10;;
69434;SDS011;56625;54.322;18.582;2022-12-10T12:26:41;27.50;;;10.90;;
69434;SDS011;56625;54.322;18.582;2022-12-10T12:29:34;31.60;;;11.00;;
69434;SDS011;56625;54.322;18.582;2022-12-10T12:32:17;29.70;;;11.60;;
69434;SDS011;56625;54.322;18.582;2022-12-10T12:35:12;38.30;;;14.60;;
69434;SDS011;56625;54.322;18.582;2022-12-10T12:37:56;31.90;;;13.70;;
69434;SDS011;56625;54.322;18.582;2022-12-10T12:40:52;34.80;;;14.70;;
69434;SDS011;56625;54.322;18.582;2022-12-10T12:44:15;30.80;;;13.20;;
69434;SDS011;56625;54.322;18.582;2022-12-10T12:46:52;33.40;;;12.70;;
69434;SDS011;56625;54.322;18.582;2022-12-10T12:49:27;33.70;;;13.50;;
69434;SDS011;56625;54.322;18.582;2022-12-10T12:52:24;29.10;;;12.10;;
69434;SDS011;56625;54.322;18.582;2022-12-10T12:54:56;31.60;;;14.50;;
69434;SDS011;56625;54.322;18.582;2022-12-10T12:57:56;35.70;;;14.70;;
69434;SDS011;56625;54.322;18.582;2022-12-10T13:00:28;31.00;;;13.80;;
69434;SDS011;56625;54.322;18.582;2022-12-10T13:05:46;30.10;;;12.30;;
69434;SDS011;56625;54.322;18.582;2022-12-10T13:13:40;32.10;;;14.10;;
69434;SDS011;56625;54.322;18.582;2022-12-10T13:22:04;35.30;;;14.70;;
69434;SDS011;56625;54.322;18.582;2022-12-10T13:24:46;33.40;;;14.30;;
69434;SDS011;56625;54.322;18.582;2022-12-10T13:27:31;31.40;;;14.20;;
69434;SDS011;56625;54.322;18.582;2022-12-10T13:30:24;36.20;;;15.80;;
69434;SDS011;56625;54.322;18.582;2022-12-10T13:33:10;35.90;;;14.10;;
69434;SDS011;56625;54.322;18.582;2022-12-10T13:35:55;33.20;;;13.00;;
69434;SDS011;56625;54.322;18.582;2022-12-10T13:38:43;34.60;;;14.00;;
69434;SDS011;56625;54.322;18.582;2022-12-10T13:41:43;38.60;;;15.10;;
69434;SDS011;56625;54.322;18.582;2022-12-10T13:45:16;37.00;;;14.40;;
69434;SDS011;56625;54.322;18.582;2022-12-10T13:48:15;28.30;;;10.30;;
69434;SDS011;56625;54.322;18.582;2022-12-10T13:51:11;30.90;;;11.60;;
69434;SDS011;56625;54.322;18.582;2022-12-10T13:57:56;31.80;;;12.20;;
69434;SDS011;56625;54.322;18.582;2022-12-10T14:01:08;33.20;;;13.70;;
69434;SDS011;56625;54.322;18.582;2022-12-10T14:04:14;30.00;;;12.90;;
69434;SDS011;56625;54.322;18.582;2022-12-10T14:06:54;34.10;;;14.20;;
69434;SDS011;56625;54.322;18.582;2022-12-10T14:09:31;34.70;;;13.10;;
69434;SDS011;56625;54.322;18.582;2022-12-10T14:12:13;37.50;;;14.40;;
69434;SDS011;56625;54.322;18.582;2022-12-10T14:14:50;42.50;;;14.90;;
69434;SDS011;56625;54.322;18.582;2022-12-10T14:17:30;33.30;;;13.20;;
69434;SDS011;56625;54.322;18.582;2022-12-10T14:20:04;20.20;;;7.70;;
69434;SDS011;56625;54.322;18.582;2022-12-10T14:22:38;30.70;;;12.20;;
69434;SDS011;56625;54.322;18.582;2022-12-10T14:25:16;26.50;;;10.50;;
69434;SDS011;56625;54.322;18.582;2022-12-10T14:27:48;36.70;;;14.00;;
69434;SDS011;56625;54.322;18.582;2022-12-10T14:30:22;37.40;;;14.90;;
69434;SDS011;56625;54.322;18.582;2022-12-10T14:32:55;36.00;;;14.20;;
69434;SDS011;56625;54.322;18.582;2022-12-10T14:35:27;35.10;;;13.80;;
69434;SDS011;56625;54.322;18.582;2022-12-10T14:37:58;36.00;;;13.90;;
69434;SDS011;56625;54.322;18.582;2022-12-10T14:40:32;48.50;;;17.00;;
69434;SDS011;56625;54.322;18.582;2022-12-10T14:43:13;51.70;;;19.10;;
69434;SDS011;56625;54.322;18.582;2022-12-10T14:45:57;50.30;;;20.80;;
69434;SDS011;56625;54.322;18.582;2022-12-10T14:48:27;40.80;;;16.60;;
69434;SDS011;56625;54.322;18.582;2022-12-10T14:51:12;34.80;;;14.60;;
69434;SDS011;56625;54.322;18.582;2022-12-10T14:53:43;37.40;;;14.70;;
69434;SDS011;56625;54.322;18.582;2022-12-10T14:56:16;40.20;;;16.00;;
69434;SDS011;56625;54.322;18.582;2022-12-10T14:59:18;38.70;;;14.30;;
69434;SDS011;56625;54.322;18.582;2022-12-10T15:01:54;36.50;;;13.90;;
69434;SDS011;56625;54.322;18.582;2022-12-10T15:04:38;38.60;;;15.60;;
69434;SDS011;56625;54.322;18.582;2022-12-10T15:07:19;44.00;;;16.60;;
69434;SDS011;56625;54.322;18.582;2022-12-10T15:09:52;36.50;;;14.20;;
69434;SDS011;56625;54.322;18.582;2022-12-10T15:12:37;36.40;;;14.20;;
69434;SDS011;56625;54.322;18.582;2022-12-10T15:15:38;59.40;;;21.50;;
69434;SDS011;56625;54.322;18.582;2022-12-10T15:23:22;37.90;;;15.10;;
69434;SDS011;56625;54.322;18.582;2022-12-10T15:26:19;43.40;;;16.10;;
69434;SDS011;56625;54.322;18.582;2022-12-10T15:28:51;42.40;;;15.80;;
69434;SDS011;56625;54.322;18.582;2022-12-10T15:31:30;38.60;;;16.70;;
69434;SDS011;56625;54.322;18.582;2022-12-10T15:34:08;39.50;;;14.80;;
69434;SDS011;56625;54.322;18.582;2022-12-10T15:36:40;36.70;;;15.00;;
69434;SDS011;56625;54.322;18.582;2022-12-10T15:39:19;38.00;;;14.60;;
69434;SDS011;56625;54.322;18.582;2022-12-10T15:41:51;35.60;;;14.00;;
69434;SDS011;56625;54.322;18.582;2022-12-10T15:49:36;44.10;;;17.20;;
69434;SDS011;56625;54.322;18.582;2022-12-10T15:52:04;43.90;;;16.20;;
69434;SDS011;56625;54.322;18.582;2022-12-10T15:54:35;42.40;;;15.20;;
69434;SDS011;56625;54.322;18.582;2022-12-10T15:57:14;37.70;;;14.60;;
69434;SDS011;56625;54.322;18.582;2022-12-10T15:59:48;34.50;;;13.40;;
69434;SDS011;56625;54.322;18.582;2022-12-10T16:05:27;36.10;;;13.60;;
69434;SDS011;56625;54.322;18.582;2022-12-10T16:10:42;36.20;;;14.40;;
69434;SDS011;56625;54.322;18.582;2022-12-10T16:13:18;33.50;;;11.90;;
69434;SDS011;56625;54.322;18.582;2022-12-10T16:15:52;45.20;;;18.20;;
69434;SDS011;56625;54.322;18.582;2022-12-10T16:18:25;48.70;;;17.20;;
69434;SDS011;56625;54.322;18.582;2022-12-10T16:21:00;36.70;;;13.70;;
69434;SDS011;56625;54.322;18.582;2022-12-10T16:23:29;38.70;;;14.20;;
69434;SDS011;56625;54.322;18.582;2022-12-10T16:25:57;36.10;;;13.60;;
69434;SDS011;56625;54.322;18.582;2022-12-10T16:28:27;36.90;;;14.10;;
69434;SDS011;56625;54.322;18.582;2022-12-10T16:30:57;40.10;;;14.70;;
69434;SDS011;56625;54.322;18.582;2022-12-10T16:33:27;37.50;;;13.90;;